Time;durP1;ratioP1;P1;durP2;ratioP2;P2;SDS_P1;SDS_P2;PMS_P1;PMS_P2;Temp;Humidity;BMP_temperature;BMP_pressure;BME280_temperature;BME280_humidity;BME280_pressure;Samples;Min_cycle;Max_cycle;Signal;HPM_P1;HPM_P2
2022/09/03 00:00:03;;;;;;;;;;;17.40;91.70;;;;;;4946014;28;20251;-79
2022/09/03 00:02:38;;;;;;;;;;;17.40;91.70;;;;;;4943765;28;19934;-78
2022/09/03 00:05:06;;;;;;;;;;;17.40;91.70;;;;;;4944462;28;19934;-79
2022/09/03 00:07:36;;;;;;;;;;;17.40;91.70;;;;;;4945132;29;19931;-78
2022/09/03 00:10:06;;;;;;;;;;;17.40;91.70;;;;;;4944964;29;19990;-78
2022/09/03 00:12:36;;;;;;;;;;;17.40;91.70;;;;;;4945695;29;19934;-78
2022/09/03 00:15:05;;;;;;;;;;;17.40;91.70;;;;;;4930425;28;20017;-78
2022/09/03 00:17:34;;;;;;;;;;;17.40;91.70;;;;;;4927363;29;19998;-79
2022/09/03 00:20:05;;;;;;;;;;;17.40;91.70;;;;;;4940715;28;19981;-79
2022/09/03 00:22:34;;;;;;;;;;;17.40;91.70;;;;;;4932591;29;19959;-79
2022/09/03 00:25:03;;;;;;;;;;;17.30;91.70;;;;;;4943254;29;19933;-79
2022/09/03 00:27:32;;;;;;;;;;;17.30;91.70;;;;;;4927308;29;19941;-78
2022/09/03 00:30:02;;;;;;;;;;;17.30;91.70;;;;;;4942344;29;19934;-79
2022/09/03 00:32:34;;;;;;;;;;;17.30;91.70;;;;;;4941774;28;19939;-79
2022/09/03 00:35:05;;;;;;;;;;;17.30;91.70;;;;;;4926602;28;19935;-79
2022/09/03 00:37:32;;;;;;;;;;;17.30;91.70;;;;;;4943777;28;20317;-79
2022/09/03 00:39:59;;;;;;;;;;;17.30;91.70;;;;;;4929988;29;19950;-78
2022/09/03 00:42:38;;;;;;;;;;;17.20;91.70;;;;;;4947064;28;19926;-79
2022/09/03 00:45:12;;;;;;;;;;;17.30;91.70;;;;;;4945318;29;20408;-78
2022/09/03 00:47:44;;;;;;;;;;;17.20;91.70;;;;;;4945018;28;19958;-79
2022/09/03 00:50:15;;;;;;;;;;;17.30;91.80;;;;;;4948476;29;19951;-79
2022/09/03 00:52:47;;;;;;;;;;;17.20;91.80;;;;;;4951034;28;19938;-79
2022/09/03 00:55:21;;;;;;;;;;;17.20;91.80;;;;;;4949594;28;19950;-78
2022/09/03 00:57:57;;;;;;;;;;;17.20;91.80;;;;;;4949996;28;19927;-79
2022/09/03 01:00:24;;;;;;;;;;;17.20;91.90;;;;;;4948187;29;19927;-79
2022/09/03 01:02:59;;;;;;;;;;;17.20;91.90;;;;;;4945518;28;19994;-79
2022/09/03 01:05:37;;;;;;;;;;;17.20;91.90;;;;;;4948775;28;20186;-78
2022/09/03 01:08:10;;;;;;;;;;;17.20;91.90;;;;;;4947321;28;20385;-78
2022/09/03 01:10:43;;;;;;;;;;;17.20;92.00;;;;;;4952145;29;19927;-78
2022/09/03 01:13:14;;;;;;;;;;;17.20;92.00;;;;;;4949825;28;21045;-78
2022/09/03 01:15:45;;;;;;;;;;;17.10;91.90;;;;;;4955992;28;19934;-78
2022/09/03 01:18:17;;;;;;;;;;;17.20;92.00;;;;;;4953328;28;19930;-77
2022/09/03 01:20:55;;;;;;;;;;;17.10;91.90;;;;;;4955540;28;19958;-79
2022/09/03 01:23:41;;;;;;;;;;;17.10;92.00;;;;;;4957825;28;19926;-78
2022/09/03 01:26:21;;;;;;;;;;;17.10;92.00;;;;;;4942939;29;19936;-78
2022/09/03 01:28:55;;;;;;;;;;;17.10;92.00;;;;;;4958633;28;19938;-79
2022/09/03 01:31:26;;;;;;;;;;;17.10;92.00;;;;;;4948553;28;19984;-79
2022/09/03 01:33:58;;;;;;;;;;;17.10;92.00;;;;;;4953471;28;19927;-79
2022/09/03 01:36:25;;;;;;;;;;;;;;;;;;4945799;29;20001;-78
2022/09/03 01:38:55;;;;;;;;;;;17.10;91.80;;;;;;4946315;28;19931;-78
2022/09/03 01:44:17;;;;;;;;;;;17.10;92.00;;;;;;4924489;29;20160;-78
2022/09/03 01:46:45;;;;;;;;;;;17.00;92.00;;;;;;4943214;28;20658;-78
2022/09/03 01:49:19;;;;;;;;;;;17.00;92.00;;;;;;4947168;28;19965;-78
2022/09/03 01:51:46;;;;;;;;;;;17.00;92.00;;;;;;4941177;29;20385;-79
2022/09/03 01:54:32;;;;;;;;;;;17.00;92.00;;;;;;4927887;29;20021;-78
2022/09/03 01:57:20;;;;;;;;;;;17.00;92.00;;;;;;4946203;28;20051;-79
2022/09/03 01:59:51;;;;;;;;;;;17.00;92.00;;;;;;4943602;28;20148;-78
2022/09/03 02:02:22;;;;;;;;;;;16.90;92.00;;;;;;4939192;28;21532;-78
2022/09/03 02:04:58;;;;;;;;;;;17.00;92.00;;;;;;4940924;28;20485;-78
2022/09/03 02:07:25;;;;;;;;;;;16.90;92.00;;;;;;4945457;28;20780;-78
2022/09/03 02:09:52;;;;;;;;;;;16.90;92.00;;;;;;4941227;29;20582;-78
2022/09/03 02:12:20;;;;;;;;;;;16.90;92.00;;;;;;4926987;28;19954;-79
2022/09/03 02:14:48;;;;;;;;;;;16.90;92.10;;;;;;4928461;29;19941;-78
2022/09/03 02:17:15;;;;;;;;;;;16.90;92.10;;;;;;4937926;28;19931;-77
2022/09/03 02:19:42;;;;;;;;;;;16.90;92.10;;;;;;4929176;29;19931;-78
2022/09/03 02:22:09;;;;;;;;;;;16.90;92.10;;;;;;4926488;29;19927;-78
2022/09/03 02:24:36;;;;;;;;;;;16.90;92.10;;;;;;4941690;29;19938;-78
2022/09/03 02:27:03;;;;;;;;;;;16.90;92.20;;;;;;4941468;28;19935;-78
2022/09/03 02:29:30;;;;;;;;;;;16.90;92.10;;;;;;4938935;28;20268;-77
2022/09/03 02:31:59;;;;;;;;;;;16.80;92.10;;;;;;4940677;28;19927;-78
2022/09/03 02:34:26;;;;;;;;;;;16.80;92.10;;;;;;4936485;28;19938;-78
2022/09/03 02:36:53;;;;;;;;;;;16.80;92.10;;;;;;4942274;28;19930;-78
2022/09/03 02:39:20;;;;;;;;;;;16.80;92.10;;;;;;4932013;29;20409;-77
2022/09/03 02:41:53;;;;;;;;;;;16.80;92.20;;;;;;4941907;29;19927;-77
2022/09/03 02:44:24;;;;;;;;;;;16.80;92.20;;;;;;4936978;28;19980;-78
2022/09/03 02:46:53;;;;;;;;;;;16.80;92.20;;;;;;4941432;28;20302;-78
2022/09/03 02:49:21;;;;;;;;;;;16.80;92.20;;;;;;4942105;28;19941;-78
2022/09/03 02:51:48;;;;;;;;;;;16.80;92.20;;;;;;4931314;29;19993;-79
2022/09/03 02:54:15;;;;;;;;;;;16.80;92.50;;;;;;4939329;28;19964;-78
2022/09/03 02:56:42;;;;;;;;;;;16.80;92.20;;;;;;4941398;29;19926;-78
2022/09/03 02:59:09;;;;;;;;;;;16.80;92.20;;;;;;4943666;28;19969;-78
2022/09/03 03:01:36;;;;;;;;;;;16.70;92.20;;;;;;4935103;29;19962;-78
2022/09/03 03:04:03;;;;;;;;;;;16.70;92.20;;;;;;4941039;28;19942;-78
2022/09/03 03:06:32;;;;;;;;;;;16.70;92.20;;;;;;4939836;28;20033;-78
2022/09/03 03:08:59;;;;;;;;;;;16.70;92.20;;;;;;4928876;29;19933;-78
2022/09/03 03:11:27;;;;;;;;;;;16.70;92.30;;;;;;4938541;28;19941;-78
2022/09/03 03:13:53;;;;;;;;;;;16.70;92.30;;;;;;4941967;28;19926;-78
2022/09/03 03:16:20;;;;;;;;;;;16.70;92.30;;;;;;4940173;28;19946;-78
2022/09/03 03:18:47;;;;;;;;;;;16.60;92.20;;;;;;4932888;29;19981;-78
2022/09/03 03:21:16;;;;;;;;;;;16.60;92.20;;;;;;4942134;28;19926;-78
2022/09/03 03:23:44;;;;;;;;;;;16.60;92.20;;;;;;4940291;28;20465;-78
2022/09/03 03:26:17;;;;;;;;;;;16.60;92.30;;;;;;4938834;28;20424;-78
2022/09/03 03:28:45;;;;;;;;;;;16.60;92.30;;;;;;4936952;28;19937;-78
2022/09/03 03:31:13;;;;;;;;;;;16.60;92.30;;;;;;4934417;29;19951;-79
2022/09/03 03:33:40;;;;;;;;;;;16.60;92.30;;;;;;4937033;29;19941;-78
2022/09/03 03:36:08;;;;;;;;;;;16.60;92.30;;;;;;4932944;28;19931;-79
2022/09/03 03:38:35;;;;;;;;;;;16.50;92.30;;;;;;4921614;28;19934;-78
2022/09/03 03:41:08;;;;;;;;;;;16.60;92.30;;;;;;4934767;28;19934;-78
2022/09/03 03:43:35;;;;;;;;;;;16.50;92.30;;;;;;4933012;28;19930;-78
2022/09/03 03:46:02;;;;;;;;;;;16.50;92.30;;;;;;4924224;28;19962;-78
2022/09/03 03:48:28;;;;;;;;;;;16.50;92.30;;;;;;4940236;28;19930;-78
2022/09/03 03:50:55;;;;;;;;;;;16.50;92.30;;;;;;4933344;28;19965;-78
2022/09/03 03:53:22;;;;;;;;;;;16.50;92.30;;;;;;4929087;28;20301;-78
2022/09/03 03:55:55;;;;;;;;;;;16.50;92.30;;;;;;4932489;28;19982;-77
2022/09/03 03:58:24;;;;;;;;;;;16.50;92.40;;;;;;4925294;28;20013;-78
2022/09/03 04:00:51;;;;;;;;;;;16.50;92.40;;;;;;4932947;28;19998;-78
2022/09/03 04:03:18;;;;;;;;;;;16.40;92.30;;;;;;4932957;28;19926;-78
2022/09/03 04:05:54;;;;;;;;;;;16.40;92.30;;;;;;4929172;28;19939;-78
2022/09/03 04:08:21;;;;;;;;;;;16.40;92.40;;;;;;4915833;28;19934;-78
2022/09/03 04:10:48;;;;;;;;;;;16.40;92.40;;;;;;4917106;28;19930;-78
2022/09/03 04:13:15;;;;;;;;;;;16.40;92.40;;;;;;4937255;28;19982;-78
2022/09/03 04:15:44;;;;;;;;;;;16.40;92.40;;;;;;4938776;28;19961;-79
2022/09/03 04:18:11;;;;;;;;;;;16.40;92.40;;;;;;4934289;28;19934;-78
2022/09/03 04:20:38;;;;;;;;;;;16.40;92.40;;;;;;4930503;28;20350;-77
2022/09/03 04:23:05;;;;;;;;;;;16.40;92.40;;;;;;4930784;28;20344;-78
2022/09/03 04:25:32;;;;;;;;;;;16.40;92.40;;;;;;4934437;29;19938;-79
2022/09/03 04:27:59;;;;;;;;;;;16.40;92.40;;;;;;4935664;28;19927;-78
2022/09/03 04:30:26;;;;;;;;;;;16.40;92.50;;;;;;4933004;28;19945;-78
2022/09/03 04:32:55;;;;;;;;;;;16.30;92.50;;;;;;4925176;29;19926;-78
2022/09/03 04:35:22;;;;;;;;;;;16.30;92.50;;;;;;4939631;29;19926;-78
2022/09/03 04:37:49;;;;;;;;;;;16.30;92.50;;;;;;4940692;28;20360;-78
2022/09/03 04:40:16;;;;;;;;;;;16.30;92.50;;;;;;4942720;28;20021;-78
2022/09/03 04:42:43;;;;;;;;;;;16.30;92.60;;;;;;4937479;28;20058;-77
2022/09/03 04:45:10;;;;;;;;;;;16.30;92.60;;;;;;4935256;29;19949;-78
2022/09/03 04:47:37;;;;;;;;;;;16.30;92.60;;;;;;4941164;28;20345;-78
2022/09/03 04:50:06;;;;;;;;;;;16.30;92.60;;;;;;4935056;28;20011;-78
2022/09/03 04:52:33;;;;;;;;;;;16.30;92.60;;;;;;4944298;28;20299;-79
2022/09/03 04:55:01;;;;;;;;;;;16.30;92.60;;;;;;4946897;28;19931;-79
2022/09/03 04:57:33;;;;;;;;;;;16.20;92.60;;;;;;4941824;29;19930;-78
2022/09/03 05:00:00;;;;;;;;;;;16.20;92.60;;;;;;4943924;29;19954;-78
2022/09/03 05:02:26;;;;;;;;;;;16.20;92.60;;;;;;4941254;28;19962;-78
2022/09/03 05:04:54;;;;;;;;;;;16.20;92.60;;;;;;4943067;28;20589;-79
2022/09/03 05:07:22;;;;;;;;;;;16.20;92.70;;;;;;4939274;28;20021;-78
2022/09/03 05:09:49;;;;;;;;;;;16.20;92.60;;;;;;4940741;28;19935;-78
2022/09/03 05:12:16;;;;;;;;;;;16.10;92.60;;;;;;4941421;28;19934;-79
2022/09/03 05:14:43;;;;;;;;;;;16.10;92.70;;;;;;4946048;28;20506;-78
2022/09/03 05:17:10;;;;;;;;;;;16.10;92.80;;;;;;4941911;29;20029;-78
2022/09/03 05:19:37;;;;;;;;;;;16.00;92.80;;;;;;4937887;28;19927;-78
2022/09/03 05:22:03;;;;;;;;;;;16.00;92.80;;;;;;4940755;28;19989;-79
2022/09/03 05:24:32;;;;;;;;;;;16.00;92.90;;;;;;4942515;28;20353;-77
2022/09/03 05:26:58;;;;;;;;;;;16.00;92.90;;;;;;4937976;28;19970;-78
2022/09/03 05:29:25;;;;;;;;;;;16.00;93.10;;;;;;4934257;28;19927;-78
2022/09/03 05:31:52;;;;;;;;;;;15.90;93.10;;;;;;4918315;28;19937;-81
2022/09/03 05:34:19;;;;;;;;;;;15.90;93.20;;;;;;4936291;29;19926;-80
2022/09/03 05:36:48;;;;;;;;;;;15.90;93.20;;;;;;4942361;28;19942;-81
2022/09/03 05:39:15;;;;;;;;;;;15.90;93.30;;;;;;4930756;29;19930;-80
2022/09/03 05:41:43;;;;;;;;;;;15.90;93.40;;;;;;4945478;28;19981;-78
2022/09/03 05:44:10;;;;;;;;;;;15.90;93.30;;;;;;4927224;28;19927;-78
2022/09/03 05:46:37;;;;;;;;;;;15.90;93.30;;;;;;4922153;29;19926;-78
2022/09/03 05:49:04;;;;;;;;;;;15.90;93.40;;;;;;4945042;28;20556;-78
2022/09/03 05:51:32;;;;;;;;;;;15.90;93.50;;;;;;4944846;28;19974;-78
2022/09/03 05:53:59;;;;;;;;;;;15.80;93.40;;;;;;4942068;28;19934;-77
2022/09/03 05:56:27;;;;;;;;;;;15.80;93.30;;;;;;4930744;29;19926;-78
2022/09/03 05:58:56;;;;;;;;;;;15.80;93.40;;;;;;4942145;28;20290;-78
2022/09/03 06:01:24;;;;;;;;;;;15.80;93.40;;;;;;4940111;28;19933;-78
2022/09/03 06:03:54;;;;;;;;;;;15.90;93.50;;;;;;4937782;29;20017;-78
2022/09/03 06:06:24;;;;;;;;;;;15.90;93.50;;;;;;4938251;28;19977;-78
2022/09/03 06:08:51;;;;;;;;;;;15.80;93.50;;;;;;4928001;29;19926;-78
2022/09/03 06:11:22;;;;;;;;;;;15.80;93.50;;;;;;4927632;29;20014;-80
2022/09/03 06:13:49;;;;;;;;;;;15.80;93.50;;;;;;4931556;29;19941;-81
2022/09/03 06:16:17;;;;;;;;;;;15.80;93.60;;;;;;4953165;28;19981;-81
2022/09/03 06:18:44;;;;;;;;;;;15.80;93.60;;;;;;4946600;28;19927;-81
2022/09/03 06:21:11;;;;;;;;;;;15.80;93.70;;;;;;4930698;29;19958;-82
2022/09/03 06:23:37;;;;;;;;;;;15.80;93.80;;;;;;4930007;28;19966;-81
2022/09/03 06:26:05;;;;;;;;;;;15.80;93.80;;;;;;4939074;29;20401;-78
2022/09/03 06:28:33;;;;;;;;;;;15.80;93.80;;;;;;4937354;28;19927;-77
2022/09/03 06:31:01;;;;;;;;;;;15.80;93.80;;;;;;4921347;29;19969;-77
2022/09/03 06:33:30;;;;;;;;;;;15.80;93.80;;;;;;4941950;29;20022;-78
2022/09/03 06:35:58;;;;;;;;;;;15.80;93.80;;;;;;4943720;28;19954;-78
2022/09/03 06:38:26;;;;;;;;;;;15.80;93.80;;;;;;4936266;28;19927;-78
2022/09/03 06:40:56;;;;;;;;;;;15.80;93.80;;;;;;4937270;29;20420;-78
2022/09/03 06:43:25;;;;;;;;;;;15.80;93.80;;;;;;4934102;29;19949;-80
2022/09/03 06:45:55;;;;;;;;;;;15.80;93.80;;;;;;4944899;28;19931;-81
2022/09/03 06:48:22;;;;;;;;;;;15.80;93.90;;;;;;4945275;29;20441;-81
2022/09/03 06:51:01;;;;;;;;;;;15.80;94.00;;;;;;4939415;28;19934;-81
2022/09/03 06:53:29;;;;;;;;;;;15.80;93.90;;;;;;4951611;28;19959;-80
2022/09/03 06:55:56;;;;;;;;;;;15.80;93.90;;;;;;4945895;28;19998;-81
2022/09/03 06:58:24;;;;;;;;;;;15.80;93.80;;;;;;4940111;28;21111;-80
2022/09/03 07:00:52;;;;;;;;;;;15.90;93.90;;;;;;4946104;28;20005;-81
2022/09/03 07:03:19;;;;;;;;;;;15.90;94.00;;;;;;4945000;28;19927;-80
2022/09/03 07:05:46;;;;;;;;;;;15.90;94.00;;;;;;4948069;28;19926;-81
2022/09/03 07:08:15;;;;;;;;;;;15.90;94.10;;;;;;4943268;28;19956;-81
2022/09/03 07:10:45;;;;;;;;;;;15.80;94.20;;;;;;4943961;29;20537;-80
2022/09/03 07:13:13;;;;;;;;;;;15.80;94.20;;;;;;4950110;28;19954;-81
2022/09/03 07:15:40;;;;;;;;;;;15.80;94.40;;;;;;4939316;29;19930;-80
2022/09/03 07:18:06;;;;;;;;;;;15.80;94.40;;;;;;4946729;28;20053;-81
2022/09/03 07:20:33;;;;;;;;;;;15.80;94.50;;;;;;4930000;28;19926;-81
2022/09/03 07:23:00;;;;;;;;;;;15.80;94.50;;;;;;4941759;28;19934;-80
2022/09/03 07:25:29;;;;;;;;;;;15.80;94.50;;;;;;4944516;28;20131;-80
2022/09/03 07:27:57;;;;;;;;;;;15.80;94.60;;;;;;4942350;28;19927;-80
2022/09/03 07:30:25;;;;;;;;;;;15.80;94.70;;;;;;4944880;28;19927;-81
2022/09/03 07:32:52;;;;;;;;;;;15.80;94.70;;;;;;4944794;28;19934;-80
2022/09/03 07:35:19;;;;;;;;;;;15.80;94.70;;;;;;4948410;29;19959;-80
2022/09/03 07:37:46;;;;;;;;;;;15.80;94.70;;;;;;4946251;28;19997;-81
2022/09/03 07:40:14;;;;;;;;;;;15.80;94.60;;;;;;4939787;28;19927;-78
2022/09/03 07:42:42;;;;;;;;;;;15.80;94.70;;;;;;4941384;28;19934;-78
2022/09/03 07:45:11;;;;;;;;;;;15.80;94.70;;;;;;4937454;29;19954;-78
2022/09/03 07:47:38;;;;;;;;;;;15.80;94.80;;;;;;4942688;28;19949;-81
2022/09/03 07:50:05;;;;;;;;;;;15.80;94.70;;;;;;4935069;29;19938;-80
2022/09/03 07:52:32;;;;;;;;;;;15.90;94.90;;;;;;4936387;28;19926;-80
2022/09/03 07:54:59;;;;;;;;;;;15.90;94.90;;;;;;4934003;29;20029;-80
2022/09/03 07:57:26;;;;;;;;;;;15.90;94.90;;;;;;4944167;28;19937;-79
2022/09/03 07:59:54;;;;;;;;;;;15.90;95.20;;;;;;4925050;29;19934;-81
2022/09/03 08:02:21;;;;;;;;;;;15.90;94.90;;;;;;4925420;28;19941;-80
2022/09/03 08:04:48;;;;;;;;;;;15.90;95.00;;;;;;4928344;28;20039;-80
2022/09/03 08:07:15;;;;;;;;;;;16.00;95.20;;;;;;4942734;28;19938;-80
2022/09/03 08:09:42;;;;;;;;;;;16.00;95.30;;;;;;4924331;29;19993;-81
2022/09/03 08:12:09;;;;;;;;;;;16.00;95.40;;;;;;4943057;28;20005;-81
2022/09/03 08:14:36;;;;;;;;;;;16.00;95.50;;;;;;4933220;29;19962;-80
2022/09/03 08:17:04;;;;;;;;;;;16.00;95.50;;;;;;4932748;29;19926;-81
2022/09/03 08:19:31;;;;;;;;;;;16.00;95.50;;;;;;4949409;28;19946;-80
2022/09/03 08:21:58;;;;;;;;;;;16.10;95.50;;;;;;4925462;29;20370;-79
2022/09/03 08:24:25;;;;;;;;;;;16.10;95.50;;;;;;4945500;28;19958;-80
2022/09/03 08:26:52;;;;;;;;;;;16.10;95.50;;;;;;4932121;28;19962;-80
2022/09/03 08:29:19;;;;;;;;;;;16.10;95.50;;;;;;4925394;29;19958;-80
2022/09/03 08:31:46;;;;;;;;;;;16.10;95.40;;;;;;4941158;28;19935;-81
2022/09/03 08:34:16;;;;;;;;;;;16.10;95.40;;;;;;4945992;28;20294;-81
2022/09/03 08:36:46;;;;;;;;;;;16.10;95.40;;;;;;4943447;29;19953;-80
2022/09/03 08:39:13;;;;;;;;;;;16.20;95.40;;;;;;4938727;29;19970;-81
2022/09/03 08:41:48;;;;;;;;;;;16.20;95.40;;;;;;4943119;28;20393;-81
2022/09/03 08:44:20;;;;;;;;;;;16.20;95.50;;;;;;4927275;29;19961;-81
2022/09/03 08:46:51;;;;;;;;;;;16.20;95.60;;;;;;4930255;29;19930;-80
2022/09/03 08:49:22;;;;;;;;;;;16.30;95.60;;;;;;4942087;28;19931;-82
2022/09/03 08:51:50;;;;;;;;;;;16.30;95.40;;;;;;4937055;28;19927;-80
2022/09/03 08:54:17;;;;;;;;;;;16.30;95.30;;;;;;4926462;29;20017;-81
2022/09/03 08:56:44;;;;;;;;;;;16.30;95.50;;;;;;4937527;28;20037;-83
2022/09/03 08:59:11;;;;;;;;;;;16.30;95.40;;;;;;4932578;28;19930;-82
2022/09/03 09:01:43;;;;;;;;;;;16.30;95.60;;;;;;4919431;29;19927;-83
2022/09/03 09:04:14;;;;;;;;;;;16.40;95.70;;;;;;4935945;28;19934;-82
2022/09/03 09:06:48;;;;;;;;;;;16.40;95.90;;;;;;4939482;28;19941;-82
2022/09/03 09:09:21;;;;;;;;;;;16.40;95.60;;;;;;4941376;28;19982;-85
2022/09/03 09:11:54;;;;;;;;;;;16.40;95.70;;;;;;4921816;29;19927;-83
2022/09/03 09:14:26;;;;;;;;;;;16.50;95.90;;;;;;4929841;29;20013;-83
2022/09/03 09:16:57;;;;;;;;;;;16.50;95.90;;;;;;4940684;28;19930;-83
2022/09/03 09:19:32;;;;;;;;;;;16.50;96.00;;;;;;4934452;29;20397;-83
2022/09/03 09:22:02;;;;;;;;;;;16.50;96.00;;;;;;4945036;28;19995;-83
2022/09/03 09:24:34;;;;;;;;;;;16.50;95.90;;;;;;4937300;28;19954;-83
2022/09/03 09:27:04;;;;;;;;;;;16.50;96.10;;;;;;4921462;29;20378;-83
2022/09/03 09:29:32;;;;;;;;;;;16.60;96.90;;;;;;4941095;28;20519;-83
2022/09/03 09:31:59;;;;;;;;;;;16.70;97.90;;;;;;4920674;29;19982;-84
2022/09/03 09:34:26;;;;;;;;;;;17.00;99.90;;;;;;4922394;29;19935;-84
2022/09/03 09:36:54;;;;;;;;;;;17.00;99.60;;;;;;4941406;28;19927;-83
2022/09/03 09:39:23;;;;;;;;;;;16.90;98.80;;;;;;4936899;28;19986;-84
2022/09/03 09:42:01;;;;;;;;;;;16.90;98.70;;;;;;4924443;29;19938;-84
2022/09/03 09:44:27;;;;;;;;;;;16.90;98.40;;;;;;4919020;29;20098;-84
2022/09/03 09:47:06;;;;;;;;;;;16.90;98.20;;;;;;4927885;29;20013;-83
2022/09/03 09:49:34;;;;;;;;;;;16.90;98.20;;;;;;4939184;28;20386;-83
2022/09/03 09:52:01;;;;;;;;;;;16.90;98.10;;;;;;4938421;28;20203;-83
2022/09/03 09:54:30;;;;;;;;;;;17.00;98.70;;;;;;4920744;29;20024;-82
2022/09/03 09:57:00;;;;;;;;;;;17.10;99.30;;;;;;4933792;29;19989;-81
2022/09/03 09:59:27;;;;;;;;;;;17.10;98.70;;;;;;4936609;28;19933;-80
2022/09/03 10:02:03;;;;;;;;;;;17.20;99.20;;;;;;4923825;29;19926;-81
2022/09/03 10:04:31;;;;;;;;;;;17.30;99.90;;;;;;4936501;28;19989;-81
2022/09/03 10:07:00;;;;;;;;;;;17.40;99.90;;;;;;4940136;28;19935;-81
2022/09/03 10:09:27;;;;;;;;;;;17.50;99.90;;;;;;4935658;28;19957;-81
2022/09/03 10:12:04;;;;;;;;;;;17.60;99.90;;;;;;4923141;29;20397;-81
2022/09/03 10:14:35;;;;;;;;;;;17.60;99.90;;;;;;4927105;29;19931;-80
2022/09/03 10:17:05;;;;;;;;;;;17.60;99.90;;;;;;4938854;28;19937;-81
2022/09/03 10:19:39;;;;;;;;;;;17.70;99.90;;;;;;4937153;28;19954;-81
2022/09/03 10:22:09;;;;;;;;;;;17.80;99.90;;;;;;4941245;28;19927;-80
2022/09/03 10:24:41;;;;;;;;;;;17.80;99.90;;;;;;4942599;28;19930;-79
2022/09/03 10:27:11;;;;;;;;;;;17.90;99.90;;;;;;4945893;28;19926;-80
2022/09/03 10:29:39;;;;;;;;;;;17.90;99.90;;;;;;4923678;29;19927;-80
2022/09/03 10:32:21;;;;;;;;;;;17.90;99.90;;;;;;4945199;28;19949;-79
2022/09/03 10:34:57;;;;;;;;;;;17.90;99.90;;;;;;4933968;29;20022;-80
2022/09/03 10:37:29;;;;;;;;;;;18.00;99.90;;;;;;4932333;28;19959;-79
2022/09/03 10:40:06;;;;;;;;;;;18.00;99.90;;;;;;4944745;28;20184;-78
2022/09/03 10:42:39;;;;;;;;;;;18.00;99.90;;;;;;4936237;28;19945;-79
2022/09/03 10:45:12;;;;;;;;;;;18.10;99.90;;;;;;4929572;28;19938;-80
2022/09/03 10:48:03;;;;;;;;;;;18.00;99.90;;;;;;4938613;28;19934;-80
2022/09/03 10:50:32;;;;;;;;;;;18.10;99.90;;;;;;4939065;28;19927;-79
2022/09/03 10:53:06;;;;;;;;;;;18.20;99.90;;;;;;4918906;29;19930;-79
2022/09/03 10:55:38;;;;;;;;;;;18.30;99.90;;;;;;4934763;28;19927;-79
2022/09/03 10:58:16;;;;;;;;;;;18.40;99.90;;;;;;4941906;28;19926;-78
2022/09/03 11:00:48;;;;;;;;;;;18.40;99.90;;;;;;4941807;29;20720;-79
2022/09/03 11:03:33;;;;;;;;;;;18.40;99.90;;;;;;4933393;29;19930;-79
2022/09/03 11:06:03;;;;;;;;;;;18.50;99.90;;;;;;4934926;28;20317;-79
2022/09/03 11:08:33;;;;;;;;;;;18.50;99.90;;;;;;4940510;28;19935;-78
2022/09/03 11:11:04;;;;;;;;;;;18.50;99.90;;;;;;4919579;29;20290;-79
2022/09/03 11:13:35;;;;;;;;;;;18.40;99.90;;;;;;4936657;28;21566;-80
2022/09/03 11:16:03;;;;;;;;;;;18.40;99.90;;;;;;4928425;29;19954;-77
2022/09/03 11:18:34;;;;;;;;;;;18.40;99.90;;;;;;4934816;28;20005;-80
2022/09/03 11:21:02;;;;;;;;;;;18.40;99.90;;;;;;4938410;29;19926;-80
2022/09/03 11:23:31;;;;;;;;;;;18.40;99.90;;;;;;4939952;28;19927;-79
2022/09/03 11:26:01;;;;;;;;;;;18.40;99.90;;;;;;4935278;28;19966;-79
2022/09/03 11:28:33;;;;;;;;;;;18.40;99.90;;;;;;4941519;28;19927;-80
2022/09/03 11:31:12;;;;;;;;;;;18.50;99.90;;;;;;4943763;29;19933;-81
2022/09/03 11:33:41;;;;;;;;;;;18.50;99.90;;;;;;4940496;28;19941;-78
2022/09/03 11:36:08;;;;;;;;;;;18.50;99.90;;;;;;4941697;28;19931;-78
2022/09/03 11:38:37;;;;;;;;;;;18.50;99.90;;;;;;4937900;28;19935;-80
2022/09/03 11:41:12;;;;;;;;;;;18.50;99.90;;;;;;4935301;29;19927;-77
2022/09/03 11:43:39;;;;;;;;;;;18.50;99.90;;;;;;4937353;28;20500;-78
2022/09/03 11:46:11;;;;;;;;;;;18.60;99.90;;;;;;4938706;28;19930;-78
2022/09/03 11:48:39;;;;;;;;;;;18.60;99.90;;;;;;4919905;29;20967;-78
2022/09/03 11:51:17;;;;;;;;;;;18.60;99.90;;;;;;4938339;28;19930;-78
2022/09/03 11:53:54;;;;;;;;;;;18.70;99.90;;;;;;4936362;28;20206;-76
2022/09/03 11:56:21;;;;;;;;;;;18.60;99.90;;;;;;4937597;28;19927;-77
2022/09/03 11:58:59;;;;;;;;;;;18.70;99.90;;;;;;4919297;28;20037;-77
2022/09/03 12:01:28;;;;;;;;;;;18.70;99.90;;;;;;4935381;29;20143;-75
2022/09/03 12:03:58;;;;;;;;;;;18.70;99.90;;;;;;4937542;29;20045;-82
2022/09/03 12:06:38;;;;;;;;;;;18.70;99.90;;;;;;4922789;29;19981;-79
2022/09/03 12:09:16;;;;;;;;;;;18.80;99.90;;;;;;4933600;28;19932;-78
2022/09/03 12:11:48;;;;;;;;;;;18.80;99.80;;;;;;4931365;28;19934;-79
2022/09/03 12:14:20;;;;;;;;;;;18.80;99.80;;;;;;4922359;29;19926;-79
2022/09/03 12:16:57;;;;;;;;;;;18.80;99.80;;;;;;4931031;29;19935;-79
2022/09/03 12:19:28;;;;;;;;;;;18.90;99.90;;;;;;4935186;28;19937;-79
2022/09/03 12:21:55;;;;;;;;;;;18.90;99.90;;;;;;4930763;28;19930;-79
2022/09/03 12:24:24;;;;;;;;;;;18.90;99.90;;;;;;4935600;28;20408;-78
2022/09/03 12:26:51;;;;;;;;;;;18.90;99.90;;;;;;4928512;28;20397;-78
2022/09/03 12:29:23;;;;;;;;;;;18.90;99.90;;;;;;4935216;28;19942;-79
2022/09/03 12:31:50;;;;;;;;;;;18.90;99.90;;;;;;4930886;28;19927;-79
2022/09/03 12:34:20;;;;;;;;;;;18.90;99.90;;;;;;4936346;28;20038;-79
2022/09/03 12:36:48;;;;;;;;;;;18.90;99.90;;;;;;4935084;28;19930;-79
2022/09/03 12:39:16;;;;;;;;;;;18.90;99.90;;;;;;4932986;28;19973;-79
2022/09/03 12:41:54;;;;;;;;;;;18.90;99.90;;;;;;4934456;28;19941;-79
2022/09/03 12:44:25;;;;;;;;;;;18.90;99.90;;;;;;4939445;28;19941;-79
2022/09/03 12:47:03;;;;;;;;;;;18.90;99.90;;;;;;4930418;28;20403;-79
2022/09/03 12:49:36;;;;;;;;;;;18.90;99.80;;;;;;4932307;28;19977;-80
2022/09/03 12:52:07;;;;;;;;;;;18.90;99.70;;;;;;4930195;28;20721;-78
2022/09/03 12:54:34;;;;;;;;;;;18.90;99.70;;;;;;4917964;29;19977;-79
2022/09/03 12:57:01;;;;;;;;;;;18.90;99.70;;;;;;4943227;28;19952;-78
2022/09/03 12:59:31;;;;;;;;;;;18.90;99.60;;;;;;4935717;28;19935;-79
2022/09/03 13:02:02;;;;;;;;;;;18.90;99.50;;;;;;4933897;29;19926;-78
2022/09/03 13:04:31;;;;;;;;;;;18.90;99.60;;;;;;4918348;28;19933;-79
2022/09/03 13:07:03;;;;;;;;;;;18.90;99.50;;;;;;4929721;29;20666;-79
2022/09/03 13:09:31;;;;;;;;;;;18.80;99.40;;;;;;4937561;28;20162;-79
2022/09/03 13:11:58;;;;;;;;;;;18.80;99.50;;;;;;4932819;28;19927;-78
2022/09/03 13:14:25;;;;;;;;;;;18.90;99.60;;;;;;4914099;29;19953;-78
2022/09/03 13:17:10;;;;;;;;;;;18.90;99.60;;;;;;4928952;28;19926;-79
2022/09/03 13:19:43;;;;;;;;;;;18.90;99.60;;;;;;4944110;29;19934;-79
2022/09/03 13:22:15;;;;;;;;;;;18.90;99.60;;;;;;4920044;29;19953;-79
2022/09/03 13:25:03;;;;;;;;;;;18.90;99.50;;;;;;4942007;28;19930;-78
2022/09/03 13:27:34;;;;;;;;;;;18.90;99.50;;;;;;4927910;28;19935;-79
2022/09/03 13:30:07;;;;;;;;;;;18.90;99.50;;;;;;4938646;29;20448;-78
2022/09/03 13:32:53;;;;;;;;;;;18.90;99.50;;;;;;4938190;29;20397;-78
2022/09/03 13:35:26;;;;;;;;;;;18.90;99.40;;;;;;4912547;29;19934;-78
2022/09/03 13:37:56;;;;;;;;;;;19.00;99.40;;;;;;4935440;28;19937;-79
2022/09/03 13:40:26;;;;;;;;;;;19.00;99.40;;;;;;4941014;28;20062;-80
2022/09/03 13:43:01;;;;;;;;;;;18.90;99.30;;;;;;4936995;28;19962;-80
2022/09/03 13:45:31;;;;;;;;;;;18.90;99.20;;;;;;4941019;28;19937;-79
2022/09/03 13:50:48;;;;;;;;;;;19.00;99.20;;;;;;4925166;29;19934;-80
2022/09/03 13:53:19;;;;;;;;;;;19.00;99.20;;;;;;4940984;29;20401;-79
2022/09/03 13:55:47;;;;;;;;;;;19.00;99.20;;;;;;4937091;28;19930;-80
2022/09/03 13:58:19;;;;;;;;;;;19.00;99.10;;;;;;4940728;29;19930;-79
2022/09/03 14:00:49;;;;;;;;;;;19.00;99.10;;;;;;4937428;28;20013;-80
2022/09/03 14:03:24;;;;;;;;;;;19.00;99.10;;;;;;4921101;29;19926;-79
2022/09/03 14:06:00;;;;;;;;;;;19.00;99.00;;;;;;4920181;28;20021;-79
2022/09/03 14:08:33;;;;;;;;;;;19.00;99.00;;;;;;4939976;28;19944;-79
2022/09/03 14:11:09;;;;;;;;;;;19.00;98.90;;;;;;4938581;29;20020;-79
2022/09/03 14:13:54;;;;;;;;;;;19.00;98.90;;;;;;4937301;28;19934;-80
2022/09/03 14:16:26;;;;;;;;;;;19.00;98.90;;;;;;4938808;28;20007;-80
2022/09/03 14:18:57;;;;;;;;;;;19.00;98.90;;;;;;4939449;29;19927;-79
2022/09/03 14:21:27;;;;;;;;;;;19.00;98.90;;;;;;4933550;28;19938;-79
2022/09/03 14:24:01;;;;;;;;;;;19.00;98.80;;;;;;4938706;28;19931;-79
2022/09/03 14:26:30;;;;;;;;;;;19.00;98.90;;;;;;4936086;28;19938;-78
2022/09/03 14:29:02;;;;;;;;;;;19.00;98.90;;;;;;4937752;28;19942;-78
2022/09/03 14:31:38;;;;;;;;;;;19.00;98.90;;;;;;4947356;28;19965;-78
2022/09/03 14:34:08;;;;;;;;;;;19.10;98.90;;;;;;4922481;28;20036;-79
2022/09/03 14:36:38;;;;;;;;;;;19.00;98.80;;;;;;4925440;29;19933;-79
2022/09/03 14:39:12;;;;;;;;;;;19.10;98.90;;;;;;4937286;28;19930;-79